Lisbon, OH (44432)

5:23 PM EDT on August 01, 2015 (GMT -0400)
Guilford Lake State Park | | Change Station
CLOSE
Current Station
Personal Weather Station
Location: Hanoverton, OH
Elevation: 1168 ft
Nearby Weather Stations

Elev 1168 ft 40.80 °N, 80.88 °W | Updated 1 minute ago

Mostly Cloudy
Mostly Cloudy
80.9 °F
Feels Like 81 °F
N
2.0
Wind Variable Wind from SW
Gusts 4.0 mph

Today
High -- | Low -- °F
--% Chance of Precip.
Yesterday
High -- | Low -- °F
Precip. -- in
6:19 AM 8:38 PM
Full, 97% visible
Pressure 29.92 in
Visibility 10.0 miles
Clouds Mostly Cloudy 6000 ft
Mostly Cloudy 8000 ft
Overcast 9500 ft
Heat Index 81 °F
Dew Point 57 °F
Humidity 44%
Rainfall 0.00 in
Snow Depth Not available.
UV 2 out of 12
Pollen 7.00 out of 12
Air Quality Not available.
Flu Activity Not available.
METAR KBVI 012047Z 29006KT 10SM BKN060 BKN080 OVC095 24/13 A2992 RMK LAST

More Conditions Fewer Conditions

Pressure 29.92 in
Visibility 10.0 miles
Clouds Mostly Cloudy 6000 ft
Mostly Cloudy 8000 ft
Overcast 9500 ft
Heat Index 81 °F
Dew Point 57 °F
Humidity 44%
Rainfall 0.00 in
Snow Depth Not available.
UV 2 out of 12
Pollen 7.00 out of 12
Air Quality Not available.
Flu Activity Not available.
METAR KBVI 012047Z 29006KT 10SM BKN060 BKN080 OVC095 24/13 A2992 RMK LAST

More Conditions Fewer Conditions

10-Day Weather Forecast

×

Almanac

Astronomy

Aug. 01, 2015 Rise Set
Actual Time
Civil Twilight
Nautical Twilight
Astronomical Twilight
Moon
Length of Visible Light
Length of Day
Tomorrow will be .
, % of the Moon is Illuminated

Today's Extremes

State Highs State Lows

Community

WunderPhotos

Upload Photos

1,843,064 photos uploaded!

WunderBlogs® & News

Nearby

Air Quality

  Air Quality AQ Index Pollutant
Not available.

Snow Depth

Station Depth Elevation

Earthquake Activity

City Distance Mag. Time & Date
Minimum magnitude displayed is 2.5.

Coastal Water Temperatures

Place Temperature

Stations

Nearby Weather Stations

Station Location Temp. Windchill Dew Point Humidity Wind Precip. Elev Updated Type